Time;durP1;ratioP1;P1;durP2;ratioP2;P2;SDS_P1;SDS_P2;PMS_P1;PMS_P2;Temp;Humidity;BMP_temperature;BMP_pressure;BME280_temperature;BME280_humidity;BME280_pressure;Samples;Min_cycle;Max_cycle;Signal;HPM_P1;HPM_P2
2022/05/26 00:01:27;;;;;;;3.83;3.00;;;;;;;20.47;74.43;100928.84;4896882;29;20412;-69
2022/05/26 00:03:56;;;;;;;5.50;3.00;;;;;;;20.49;74.78;100922.94;4896650;29;20045;-70
2022/05/26 00:06:26;;;;;;;5.57;3.35;;;;;;;20.47;75.02;100923.28;4897588;29;20399;-71
2022/05/26 00:08:55;;;;;;;3.80;3.38;;;;;;;20.52;74.95;100936.16;4895892;29;20063;-70
2022/05/26 00:11:28;;;;;;;6.30;3.17;;;;;;;20.46;74.96;100921.66;4896873;29;20407;-70
2022/05/26 00:13:57;;;;;;;7.18;3.30;;;;;;;20.46;75.35;100929.16;4896710;29;20385;-70
2022/05/26 00:16:25;;;;;;;5.10;3.13;;;;;;;20.48;75.06;100932.44;4896866;29;20048;-70
2022/05/26 00:18:53;;;;;;;4.03;2.83;;;;;;;20.61;74.79;100936.09;4879412;29;20067;-70
2022/05/26 00:21:22;;;;;;;3.88;3.47;;;;;;;20.85;73.66;100932.63;4892062;29;20063;-69
2022/05/26 00:23:50;;;;;;;5.90;3.35;;;;;;;20.80;73.99;100946.72;4878054;29;20052;-69
2022/05/26 00:26:17;;;;;;;3.40;3.10;;;;;;;20.73;74.62;100940.91;4895674;29;20057;-70
2022/05/26 00:28:45;;;;;;;3.38;3.08;;;;;;;20.67;74.36;100943.88;4878483;29;20052;-69
2022/05/26 00:31:13;;;;;;;4.50;3.35;;;;;;;20.50;75.43;100947.63;4896057;29;20041;-69
2022/05/26 00:33:42;;;;;;;3.80;3.50;;;;;;;20.45;75.46;100956.16;4896861;29;20053;-69
2022/05/26 00:36:12;;;;;;;4.20;3.00;;;;;;;20.65;74.72;100956.50;4896870;29;20815;-69
2022/05/26 00:38:40;;;;;;;2.92;2.72;;;;;;;20.63;74.58;100953.25;4873550;29;20684;-69
2022/05/26 00:41:13;;;;;;;6.30;3.47;;;;;;;20.43;75.35;100952.09;4896662;29;20489;-69
2022/05/26 00:43:45;;;;;;;3.58;3.08;;;;;;;20.37;74.89;100959.81;4896649;29;20044;-69
2022/05/26 00:46:21;;;;;;;4.18;3.08;;;;;;;20.28;75.80;100957.09;4896598;29;20048;-69
2022/05/26 00:48:59;;;;;;;5.72;3.20;;;;;;;20.27;75.68;100961.03;4886070;29;20061;-69
2022/05/26 00:51:37;;;;;;;2.95;2.45;;;;;;;20.38;75.56;100956.69;4878003;29;20053;-69
2022/05/26 00:54:11;;;;;;;2.97;2.70;;;;;;;20.46;74.48;100955.00;4872920;29;20049;-69
2022/05/26 00:57:05;;;;;;;4.30;2.97;;;;;;;20.48;74.15;100951.91;4876964;29;20060;-69
2022/05/26 00:59:39;;;;;;;3.85;3.05;;;;;;;20.42;74.60;100942.94;4867068;29;20060;-69
2022/05/26 01:02:08;;;;;;;2.95;2.60;;;;;;;20.50;74.45;100957.94;4877818;29;20079;-69
2022/05/26 01:04:43;;;;;;;4.28;3.00;;;;;;;20.60;74.21;100951.97;4876111;29;20052;-69
2022/05/26 01:07:22;;;;;;;3.58;2.85;;;;;;;20.63;74.18;100947.69;4878016;29;20053;-69
2022/05/26 01:09:49;;;;;;;3.45;2.97;;;;;;;20.54;74.15;100951.34;4877994;29;20041;-69
2022/05/26 01:12:18;;;;;;;3.80;3.03;;;;;;;20.44;74.48;100950.94;4877745;29;20045;-69
2022/05/26 01:14:51;;;;;;;2.80;2.58;;;;;;;20.31;75.14;100950.03;4878171;29;20489;-69
2022/05/26 01:17:59;;;;;;;4.32;2.97;;;;;;;20.38;74.98;100953.91;4877770;29;20049;-69
2022/05/26 01:21:07;;;;;;;3.20;2.78;;;;;;;20.46;74.77;100948.63;4877694;29;20057;-68
2022/05/26 01:24:03;;;;;;;3.65;3.10;;;;;;;20.35;74.37;100951.00;4877728;29;20064;-69
2022/05/26 01:26:57;;;;;;;3.85;2.67;;;;;;;20.32;74.86;100952.50;4879692;29;20397;-69
2022/05/26 01:30:04;;;;;;;6.05;3.45;;;;;;;20.39;74.16;100954.75;4881018;29;20493;-69
2022/05/26 01:33:11;;;;;;;3.05;2.75;;;;;;;20.38;73.98;100953.13;4880960;29;20049;-70
2022/05/26 01:36:21;;;;;;;2.63;2.42;;;;;;;20.09;75.04;100963.91;4879856;29;20060;-70
2022/05/26 01:39:04;;;;;;;3.40;2.60;;;;;;;20.08;75.21;100956.72;4870072;29;20052;-69
2022/05/26 01:42:01;;;;;;;3.08;2.78;;;;;;;19.92;76.00;100964.81;4880800;29;20401;-69
2022/05/26 01:44:40;;;;;;;5.32;2.92;;;;;;;19.81;76.75;100963.56;4880629;29;20059;-69
2022/05/26 01:47:38;;;;;;;4.30;2.50;;;;;;;19.72;77.33;100955.25;4884064;29;20063;-69
2022/05/26 01:50:21;;;;;;;6.00;3.40;;;;;;;19.70;77.62;100958.34;4899345;29;20051;-69
2022/05/26 01:53:04;;;;;;;3.78;3.22;;;;;;;19.72;77.82;100950.53;4882803;29;20053;-69
2022/05/26 01:55:50;;;;;;;4.07;3.30;;;;;;;19.70;78.21;100952.00;4899368;29;20048;-69
2022/05/26 01:58:22;;;;;;;4.03;3.33;;;;;;;19.72;78.00;100955.25;4899371;29;20049;-69
2022/05/26 02:00:52;;;;;;;4.22;3.35;;;;;;;19.98;76.92;100946.00;4899281;29;20056;-69
2022/05/26 02:03:27;;;;;;;4.22;3.15;;;;;;;20.11;76.40;100938.59;4899170;29;20048;-69
2022/05/26 02:06:09;;;;;;;5.07;3.10;;;;;;;20.23;75.56;100929.53;4899190;29;20059;-69
2022/05/26 02:08:42;;;;;;;3.42;2.97;;;;;;;20.26;75.18;100929.66;4899269;29;20397;-69
2022/05/26 02:11:14;;;;;;;3.28;2.97;;;;;;;20.17;75.32;100923.34;4899132;29;20052;-70
2022/05/26 02:14:03;;;;;;;3.83;3.47;;;;;;;20.27;74.80;100930.47;4899203;29;20412;-69
2022/05/26 02:16:42;;;;;;;4.70;3.40;;;;;;;20.01;76.45;100929.47;4876355;29;20048;-69
2022/05/26 02:19:24;;;;;;;5.50;3.08;;;;;;;19.94;76.33;100934.72;4899027;29;20056;-69
2022/05/26 02:22:20;;;;;;;4.78;3.13;;;;;;;20.02;76.26;100941.41;4898933;29;20507;-69
2022/05/26 02:24:54;;;;;;;8.07;4.47;;;;;;;19.99;76.00;100947.66;4898831;29;20052;-69
2022/05/26 02:27:23;;;;;;;6.22;3.80;;;;;;;19.76;77.17;100947.91;4898915;29;20044;-69
2022/05/26 02:29:59;;;;;;;3.85;3.35;;;;;;;19.57;78.36;100946.34;4881886;29;20044;-69
2022/05/26 02:32:39;;;;;;;5.93;3.63;;;;;;;19.37;79.49;100958.16;4898821;29;20051;-69
2022/05/26 02:35:14;;;;;;;4.43;3.42;;;;;;;19.27;80.64;100962.94;4873442;29;20056;-69
2022/05/26 02:37:46;;;;;;;3.90;3.20;;;;;;;19.30;80.19;100970.59;4898328;29;20040;-69
2022/05/26 02:40:15;;;;;;;5.60;3.25;;;;;;;19.11;81.18;100975.69;4898507;29;20044;-69
2022/05/26 02:42:51;;;;;;;5.32;3.35;;;;;;;19.09;81.30;100972.41;4898677;29;20060;-69
2022/05/26 02:45:33;;;;;;;4.53;3.35;;;;;;;18.96;82.41;100972.22;4866426;29;20056;-69
2022/05/26 02:48:16;;;;;;;6.20;3.45;;;;;;;18.98;82.27;100969.97;4896019;29;20053;-69
2022/05/26 02:51:09;;;;;;;5.65;3.85;;;;;;;18.93;82.08;100972.91;4879398;29;20049;-69
2022/05/26 02:53:52;;;;;;;4.18;3.22;;;;;;;18.79;82.58;100971.13;4875053;29;20412;-69
2022/05/26 02:56:32;;;;;;;3.80;3.40;;;;;;;18.79;82.80;100979.44;4898300;29;20055;-69
2022/05/26 02:59:12;;;;;;;4.13;3.00;;;;;;;18.79;82.85;100982.22;4898108;29;20055;-69
2022/05/26 03:02:02;;;;;;;6.57;3.80;;;;;;;18.78;83.04;100974.22;4898244;29;20051;-69
2022/05/26 03:04:39;;;;;;;6.35;3.97;;;;;;;18.89;82.35;100971.91;4873598;29;20056;-69
2022/05/26 03:07:28;;;;;;;3.83;3.40;;;;;;;19.06;81.33;100973.88;4880989;29;20063;-69
2022/05/26 03:09:56;;;;;;;8.27;3.10;;;;;;;18.93;81.67;100978.44;4881488;29;20452;-69
2022/05/26 03:12:30;;;;;;;5.05;3.67;;;;;;;18.85;82.07;100985.63;4897778;29;20044;-69
2022/05/26 03:14:58;;;;;;;;;;;;;;;18.72;82.44;100992.94;4898493;29;20049;-69
2022/05/26 03:17:26;;;;;;;3.88;3.40;;;;;;;18.55;83.42;100991.00;4896735;29;19927;-69
2022/05/26 03:19:55;;;;;;;4.88;3.35;;;;;;;18.74;82.21;100999.00;4897709;29;20052;-69
2022/05/26 03:22:23;;;;;;;4.32;3.53;;;;;;;18.72;82.18;101017.91;4897702;29;20049;-69
2022/05/26 03:24:51;;;;;;;3.70;3.40;;;;;;;18.81;81.65;101006.81;4897695;29;20044;-69
2022/05/26 03:27:19;;;;;;;6.82;3.83;;;;;;;18.88;81.08;101006.34;4881056;29;20045;-69
2022/05/26 03:29:47;;;;;;;4.30;3.50;;;;;;;18.94;80.69;101005.88;4897411;29;20056;-69
2022/05/26 03:32:16;;;;;;;5.63;3.97;;;;;;;18.92;80.62;101015.66;4897622;29;20052;-69
2022/05/26 03:43:04;;;;;;;4.57;3.50;;;;;;;18.70;82.30;101016.59;4878362;29;20449;-69
2022/05/26 03:45:34;;;;;;;5.22;3.83;;;;;;;18.96;80.80;101021.34;4861173;29;20056;-69
2022/05/26 03:48:04;;;;;;;5.15;4.03;;;;;;;18.90;81.39;101029.00;4887832;29;20060;-68
2022/05/26 03:50:33;;;;;;;5.95;3.45;;;;;;;18.76;81.55;101021.66;4868887;29;20037;-69
2022/05/26 03:53:02;;;;;;;5.65;3.75;;;;;;;18.63;82.15;101023.44;4896958;29;20392;-68
2022/05/26 03:55:30;;;;;;;7.38;3.85;;;;;;;18.57;83.58;101035.81;4896818;29;20697;-68
2022/05/26 03:57:59;;;;;;;3.75;3.38;;;;;;;18.79;81.79;101029.34;4895888;29;20404;-68
2022/05/26 04:00:27;;;;;;;5.20;3.60;;;;;;;18.83;81.76;101042.53;4896628;29;20040;-68
2022/05/26 04:02:55;;;;;;;4.80;3.75;;;;;;;18.81;81.13;101040.09;4895678;29;20044;-69
2022/05/26 04:05:23;;;;;;;3.97;3.28;;;;;;;18.88;80.38;101028.53;4896661;29;20041;-69
2022/05/26 04:07:51;;;;;;;6.82;3.38;;;;;;;18.87;80.77;101030.47;4895687;29;20048;-69
2022/05/26 04:10:19;;;;;;;4.80;3.28;;;;;;;18.86;80.49;101039.13;4896975;29;20052;-69
2022/05/26 04:12:47;;;;;;;4.05;3.17;;;;;;;18.93;79.59;101036.69;4896707;29;20056;-68
2022/05/26 04:15:17;;;;;;;3.33;2.95;;;;;;;19.13;77.85;101031.66;4879476;29;20055;-69
2022/05/26 04:17:45;;;;;;;3.17;2.65;;;;;;;19.00;78.76;101041.72;4896648;29;20709;-69
2022/05/26 04:20:16;;;;;;;5.38;3.22;;;;;;;18.88;78.99;101040.44;4896942;29;20067;-69
2022/05/26 04:22:44;;;;;;;5.43;3.35;;;;;;;19.19;77.54;101045.03;4896612;29;20052;-68
2022/05/26 04:25:13;;;;;;;4.00;3.33;;;;;;;19.27;77.19;101054.50;4896584;29;20051;-68
2022/05/26 04:27:41;;;;;;;3.58;3.28;;;;;;;19.24;77.72;101054.31;4896517;29;20044;-68
2022/05/26 04:30:10;;;;;;;5.78;2.88;;;;;;;19.56;75.84;101052.94;4895314;29;20049;-68
2022/05/26 04:32:40;;;;;;;3.40;3.05;;;;;;;19.69;75.11;101056.69;4896602;29;20045;-69
2022/05/26 04:35:10;;;;;;;3.53;2.90;;;;;;;20.13;74.14;101059.34;4891623;29;20059;-75
2022/05/26 04:37:39;;;;;;;6.00;3.10;;;;;;;20.44;72.03;101053.78;4896566;29;20519;-76
2022/05/26 04:40:09;;;;;;;4.65;3.05;;;;;;;20.73;71.13;101066.03;4894271;29;20041;-76
2022/05/26 04:42:38;;;;;;;4.20;3.35;;;;;;;20.80;70.64;101069.09;4895113;29;20044;-76
2022/05/26 04:45:09;;;;;;;7.53;3.78;;;;;;;20.71;70.81;101054.44;4896266;29;20063;-76
2022/05/26 04:47:37;;;;;;;9.70;4.05;;;;;;;20.56;70.87;101078.91;4896355;29;20401;-76
2022/05/26 04:50:06;;;;;;;4.90;3.25;;;;;;;20.64;71.06;101078.00;4896330;29;20067;-77
2022/05/26 04:52:34;;;;;;;5.00;4.50;;;;;;;20.74;70.12;101087.13;4896471;29;20051;-76
2022/05/26 04:55:04;;;;;;;3.70;3.35;;;;;;;20.82;69.89;101094.59;4896537;29;20051;-76
2022/05/26 04:57:32;;;;;;;3.33;2.88;;;;;;;21.04;69.25;101101.00;4895665;29;20052;-77
2022/05/26 04:59:59;;;;;;;4.43;3.13;;;;;;;21.14;68.51;101110.91;4883778;29;20517;-77
2022/05/26 05:02:29;;;;;;;3.63;2.80;;;;;;;21.13;68.12;101100.94;4898879;29;20041;-77
2022/05/26 05:04:57;;;;;;;5.95;2.70;;;;;;;21.07;68.12;101111.47;4900210;29;20381;-76
2022/05/26 05:07:26;;;;;;;4.53;2.58;;;;;;;20.94;68.33;101111.41;4898103;29;20049;-76
2022/05/26 05:09:54;;;;;;;4.70;3.20;;;;;;;20.90;69.46;101118.78;4898771;29;20048;-75
2022/05/26 05:12:24;;;;;;;3.42;2.67;;;;;;;20.95;69.25;101115.00;4898002;29;20048;-76
2022/05/26 05:14:53;;;;;;;9.25;3.30;;;;;;;21.11;68.88;101114.41;4881280;29;20044;-77
2022/05/26 05:17:23;;;;;;;3.00;2.80;;;;;;;21.34;68.02;101110.09;4898750;29;20048;-78
2022/05/26 05:19:52;;;;;;;4.07;2.67;;;;;;;21.59;66.92;101114.94;4899212;29;20404;-77
2022/05/26 05:22:28;;;;;;;3.03;2.72;;;;;;;21.66;65.82;101118.00;4882567;29;20397;-76
2022/05/26 05:25:08;;;;;;;3.80;2.22;;;;;;;21.75;65.61;101120.72;4897931;29;20064;-76
2022/05/26 05:27:45;;;;;;;4.40;2.25;;;;;;;21.88;65.24;101124.34;4898199;29;20041;-77
2022/05/26 05:30:18;;;;;;;5.15;2.95;;;;;;;21.87;64.67;101126.34;4897569;29;20416;-77
2022/05/26 05:33:01;;;;;;;5.15;3.08;;;;;;;22.04;64.59;101129.28;4895342;29;20420;-78
2022/05/26 05:35:37;;;;;;;5.30;2.60;;;;;;;22.12;64.24;101123.59;4879956;29;20045;-77
2022/05/26 05:38:05;;;;;;;5.82;3.28;;;;;;;22.31;63.55;101132.53;4894616;29;20040;-77
2022/05/26 05:40:35;;;;;;;5.85;3.70;;;;;;;22.32;62.96;101137.78;4876195;29;20496;-77
2022/05/26 05:43:06;;;;;;;11.88;4.05;;;;;;;22.42;63.06;101144.88;4894202;29;20052;-77
2022/05/26 05:45:35;;;;;;;8.23;3.22;;;;;;;22.50;62.73;101152.31;4896000;29;20045;-78
2022/05/26 05:48:03;;;;;;;9.80;4.03;;;;;;;22.58;62.78;101158.16;4871219;29;20045;-77
2022/05/26 05:50:31;;;;;;;5.72;3.30;;;;;;;22.65;61.51;101159.22;4880111;29;20582;-78
2022/05/26 05:52:59;;;;;;;6.30;3.10;;;;;;;22.69;61.91;101162.91;4879306;29;20045;-78
2022/05/26 05:55:29;;;;;;;3.95;2.60;;;;;;;22.74;61.88;101161.88;4870274;29;20489;-78
2022/05/26 05:57:57;;;;;;;3.92;2.70;;;;;;;22.71;62.45;101170.94;4880170;29;20063;-78
2022/05/26 06:00:25;;;;;;;4.53;2.60;;;;;;;22.76;62.10;101175.44;4879909;29;20049;-78
2022/05/26 06:02:56;;;;;;;5.70;3.30;;;;;;;22.82;62.33;101174.06;4874056;29;20946;-78
2022/05/26 06:05:25;;;;;;;3.60;3.30;;;;;;;22.97;62.10;101180.91;4876756;29;20493;-77
2022/05/26 06:07:53;;;;;;;11.18;3.65;;;;;;;22.90;61.95;101184.28;4872759;29;20052;-78
2022/05/26 06:10:22;;;;;;;6.47;3.55;;;;;;;22.89;62.09;101185.47;4860001;29;20049;-77
2022/05/26 06:12:50;;;;;;;4.85;2.85;;;;;;;22.99;61.98;101191.72;4877356;29;20049;-77
2022/05/26 06:15:18;;;;;;;5.78;2.97;;;;;;;23.09;61.88;101205.19;4876867;29;20473;-78
2022/05/26 06:17:46;;;;;;;5.55;3.30;;;;;;;23.07;61.93;101199.97;4878298;29;20056;-78
2022/05/26 06:20:14;;;;;;;4.03;3.13;;;;;;;23.08;62.38;101204.38;4878758;29;20489;-77
2022/05/26 06:22:45;;;;;;;3.63;3.20;;;;;;;23.15;61.10;101214.13;4878955;29;20052;-77
2022/05/26 06:25:16;;;;;;;5.00;3.15;;;;;;;23.11;61.37;101211.25;4878922;29;20053;-78
2022/05/26 06:30:31;;;;;;;5.07;3.50;;;;;;;23.30;60.83;101216.22;4849311;29;20056;-78
2022/05/26 06:38:41;;;;;;;8.52;4.10;;;;;;;23.61;61.77;101225.94;4878580;29;20060;-79
2022/05/26 06:43:58;;;;;;;6.88;4.60;;;;;;;23.89;62.60;101241.06;4858602;29;20048;-78
2022/05/26 06:46:26;;;;;;;5.32;4.20;;;;;;;24.01;62.33;101246.59;4878485;29;20045;-78
2022/05/26 06:48:55;;;;;;;7.68;4.70;;;;;;;24.00;64.01;101245.00;4894838;29;20052;-77
2022/05/26 06:51:28;;;;;;;7.55;4.47;;;;;;;24.09;63.06;101241.28;4896277;29;20059;-78
2022/05/26 06:53:57;;;;;;;6.43;5.00;;;;;;;24.24;63.55;101234.09;4891692;29;20041;-78
2022/05/26 06:56:25;;;;;;;6.95;4.88;;;;;;;24.41;62.95;101239.34;4896262;29;20047;-78
2022/05/26 06:58:52;;;;;;;7.03;4.78;;;;;;;24.38;64.17;101242.00;4897101;29;20126;-79
2022/05/26 07:01:21;;;;;;;6.38;4.78;;;;;;;24.37;64.49;101248.78;4896204;29;20481;-79
2022/05/26 07:03:49;;;;;;;9.45;5.18;;;;;;;24.51;64.15;101251.16;4896659;29;20052;-79
2022/05/26 07:06:21;;;;;;;9.30;5.47;;;;;;;24.62;64.64;101254.22;4897087;29;20052;-78
2022/05/26 07:08:50;;;;;;;6.78;5.03;;;;;;;24.89;63.45;101266.53;4897642;29;20056;-79
2022/05/26 07:11:18;;;;;;;7.40;4.80;;;;;;;24.99;62.79;101264.34;4897938;29;20048;-78
2022/05/26 07:13:46;;;;;;;8.98;5.10;;;;;;;25.08;61.58;101273.38;4897805;29;20044;-78
2022/05/26 07:16:15;;;;;;;8.57;4.90;;;;;;;25.28;62.79;101262.22;4897820;29;20055;-78
2022/05/26 07:18:46;;;;;;;10.57;5.30;;;;;;;25.38;61.96;101270.06;4897254;29;20068;-79
2022/05/26 07:21:14;;;;;;;6.95;4.22;;;;;;;25.46;60.84;101271.03;4896460;29;20052;-79
2022/05/26 07:23:42;;;;;;;6.35;4.05;;;;;;;25.75;59.27;101275.28;4896867;29;20060;-78
2022/05/26 07:26:13;;;;;;;5.85;4.55;;;;;;;25.47;60.79;101270.66;4897486;29;20056;-79
2022/05/26 07:28:41;;;;;;;9.05;5.03;;;;;;;25.47;60.80;101265.06;4897566;29;20044;-79
2022/05/26 07:31:11;;;;;;;5.57;4.68;;;;;;;25.53;60.80;101265.63;4894083;29;20863;-79
2022/05/26 07:33:40;;;;;;;7.40;4.72;;;;;;;25.58;60.95;101265.34;4897685;29;20044;-79
2022/05/26 07:41:16;;;;;;;7.50;4.65;;;;;;;25.50;61.19;101263.50;4897235;29;20065;-79
2022/05/26 07:41:45;;;;;;;5.80;4.35;;;;;;;25.50;61.14;101267.13;4897477;29;20053;-79
2022/05/26 07:44:14;;;;;;;8.50;4.40;;;;;;;25.55;60.55;101262.47;4897445;29;20048;-79
2022/05/26 07:46:42;;;;;;;8.52;4.97;;;;;;;25.50;61.57;101274.72;4897465;29;20032;-80
2022/05/26 07:49:12;;;;;;;8.48;4.47;;;;;;;25.38;60.11;101269.25;4878831;29;20049;-79
2022/05/26 07:51:39;;;;;;;8.15;4.72;;;;;;;25.58;59.71;101270.13;4878708;29;20057;-80
2022/05/26 07:54:07;;;;;;;7.00;3.70;;;;;;;25.64;60.25;101265.84;4878371;29;20409;-80
2022/05/26 07:56:36;;;;;;;6.00;3.97;;;;;;;25.83;59.52;101273.47;4878707;29;20060;-79
2022/05/26 07:59:06;;;;;;;9.57;4.68;;;;;;;25.98;58.91;101270.94;4878694;29;20480;-80
2022/05/26 08:01:34;;;;;;;4.68;4.03;;;;;;;25.88;58.77;101280.75;4878538;29;20596;-80
2022/05/26 08:04:05;;;;;;;6.55;4.55;;;;;;;25.71;59.53;101277.19;4877262;29;20044;-80
2022/05/26 08:06:34;;;;;;;8.57;4.25;;;;;;;25.80;59.26;101285.41;4878595;29;20401;-79
2022/05/26 08:09:02;;;;;;;7.30;5.07;;;;;;;25.58;60.16;101275.72;4878435;29;20068;-78
2022/05/26 08:11:30;;;;;;;8.25;4.35;;;;;;;25.67;60.47;101272.72;4878386;29;20404;-79
2022/05/26 08:13:58;;;;;;;7.22;4.50;;;;;;;25.70;60.28;101286.78;4878467;29;20401;-79
2022/05/26 08:16:26;;;;;;;10.63;5.35;;;;;;;25.54;61.31;101274.81;4878512;29;20409;-79
2022/05/26 08:18:54;;;;;;;5.65;4.22;;;;;;;25.55;60.42;101279.28;4861638;29;20417;-79
2022/05/26 08:21:22;;;;;;;7.25;5.20;;;;;;;25.75;61.39;101286.50;4878396;29;20052;-78
2022/05/26 08:23:51;;;;;;;9.43;5.45;;;;;;;26.02;61.02;101283.03;4861726;29;20505;-79
2022/05/26 08:26:20;;;;;;;6.93;5.38;;;;;;;26.17;60.98;101281.31;4878731;29;20049;-78
2022/05/26 08:28:49;;;;;;;11.35;6.65;;;;;;;26.00;62.03;101266.56;4878430;29;20045;-79
2022/05/26 08:31:17;;;;;;;10.18;6.80;;;;;;;25.99;62.32;101276.19;4878060;29;20049;-79
2022/05/26 08:33:45;;;;;;;9.88;6.38;;;;;;;26.01;62.76;101278.63;4861211;29;20053;-79
2022/05/26 08:36:16;;;;;;;10.80;7.13;;;;;;;25.99;62.62;101273.38;4881082;29;20382;-78
2022/05/26 08:38:46;;;;;;;9.30;6.60;;;;;;;26.12;62.66;101279.66;4865305;29;20053;-79
2022/05/26 08:41:20;;;;;;;12.18;6.53;;;;;;;26.15;62.21;101280.91;4881861;29;20056;-78
2022/05/26 08:43:54;;;;;;;11.88;6.55;;;;;;;26.13;62.54;101280.44;4881825;29;20080;-79
2022/05/26 08:46:22;;;;;;;9.82;6.65;;;;;;;26.31;61.85;101283.63;4881855;29;20060;-78
2022/05/26 08:49:08;;;;;;;11.23;6.80;;;;;;;26.24;61.71;101281.50;4881415;29;20512;-78
2022/05/26 08:52:00;;;;;;;8.77;6.10;;;;;;;26.31;61.74;101283.63;4900507;29;20049;-78
2022/05/26 08:54:44;;;;;;;9.55;6.38;;;;;;;26.31;61.35;101280.81;4899300;29;20048;-79
2022/05/26 08:57:21;;;;;;;9.80;6.50;;;;;;;26.40;61.92;101274.97;4883982;29;20404;-79
2022/05/26 08:59:49;;;;;;;12.98;6.55;;;;;;;26.45;61.00;101271.88;4900466;29;20048;-79
2022/05/26 09:02:35;;;;;;;10.00;6.18;;;;;;;26.52;60.33;101282.38;4900155;29;20493;-78
2022/05/26 09:05:19;;;;;;;10.50;5.75;;;;;;;26.64;59.96;101284.22;4900308;29;20056;-79
2022/05/26 09:13:54;;;;;;;13.30;6.50;;;;;;;27.07;58.62;101268.09;4900170;29;20055;-79
2022/05/26 09:16:22;;;;;;;12.32;6.13;;;;;;;27.06;57.78;101268.47;4900255;29;20043;-79
2022/05/26 09:19:11;;;;;;;9.27;5.72;;;;;;;27.04;57.76;101268.88;4882899;29;20416;-78
2022/05/26 09:21:40;;;;;;;11.75;6.13;;;;;;;27.08;57.70;101269.72;4899902;29;20055;-80
2022/05/26 09:24:30;;;;;;;10.38;5.97;;;;;;;27.07;57.49;101256.84;4899647;29;20060;-78
2022/05/26 09:27:03;;;;;;;9.05;5.90;;;;;;;27.08;57.40;101264.09;4899955;29;20053;-78
2022/05/26 09:29:34;;;;;;;6.67;5.87;;;;;;;27.10;57.37;101258.94;4899771;29;20049;-78
2022/05/26 09:32:05;;;;;;;7.45;5.15;;;;;;;27.02;57.74;101262.78;4899937;29;20040;-78
2022/05/26 09:35:06;;;;;;;10.60;5.60;;;;;;;27.23;56.77;101265.13;4898863;29;20052;-78
2022/05/26 09:38:00;;;;;;;6.38;5.32;;;;;;;27.46;56.57;101283.91;4899706;29;20063;-78
2022/05/26 09:40:40;;;;;;;8.48;5.53;;;;;;;27.48;54.65;101269.47;4899648;29;20045;-78
2022/05/26 09:43:16;;;;;;;7.32;4.88;;;;;;;27.56;53.66;101282.44;4899365;29;20075;-79
2022/05/26 09:45:48;;;;;;;6.32;5.18;;;;;;;27.72;53.31;101275.84;4896051;29;20049;-78
2022/05/26 09:48:51;;;;;;;5.32;4.32;;;;;;;27.81;52.78;101275.53;4887784;29;20763;-78
2022/05/26 09:51:25;;;;;;;9.52;5.35;;;;;;;27.78;52.50;101282.75;4855451;29;20523;-78
2022/05/26 09:53:55;;;;;;;6.57;4.35;;;;;;;27.69;52.33;101290.66;4891428;29;20049;-78
2022/05/26 09:56:34;;;;;;;9.55;4.90;;;;;;;27.73;52.63;101285.88;4892834;29;20040;-78
2022/05/26 09:59:24;;;;;;;9.00;5.13;;;;;;;27.71;52.31;101282.66;4894306;29;20052;-78
2022/05/26 10:02:10;;;;;;;8.02;4.40;;;;;;;27.77;50.52;101283.94;4892243;29;20049;-80
2022/05/26 10:04:48;;;;;;;5.35;4.43;;;;;;;27.84;50.14;101288.81;4896090;29;20056;-79
2022/05/26 10:07:25;;;;;;;6.70;4.55;;;;;;;27.93;50.27;101299.78;4899190;29;20778;-77
2022/05/26 10:10:12;;;;;;;6.30;4.28;;;;;;;27.73;50.84;101291.50;4893611;29;20040;-79
2022/05/26 10:12:54;;;;;;;5.55;4.30;;;;;;;27.81;51.44;101304.47;4892935;29;20049;-78
2022/05/26 10:15:45;;;;;;;5.85;4.35;;;;;;;27.86;50.74;101292.09;4891078;29;20053;-78
2022/05/26 10:18:19;;;;;;;6.38;5.00;;;;;;;27.82;50.16;101316.53;4897749;29;20055;-78
2022/05/26 10:21:01;;;;;;;9.35;4.88;;;;;;;27.70;51.62;101309.94;4898664;29;20047;-79
2022/05/26 10:23:38;;;;;;;6.25;4.55;;;;;;;28.08;50.33;101310.03;4893565;29;20045;-79
2022/05/26 10:26:49;;;;;;;5.35;4.22;;;;;;;27.94;50.23;101295.81;4890432;29;20040;-79
2022/05/26 10:29:45;;;;;;;7.68;4.75;;;;;;;28.09;49.82;101296.78;4895063;29;20099;-79
2022/05/26 10:32:37;;;;;;;9.00;4.75;;;;;;;28.35;50.02;101303.50;4889031;29;20048;-78
2022/05/26 10:35:25;;;;;;;7.50;4.70;;;;;;;28.21;49.79;101298.50;4893517;29;20055;-78
2022/05/26 10:38:10;;;;;;;5.85;4.60;;;;;;;28.20;50.07;101296.88;4887428;29;20060;-78
2022/05/26 10:41:00;;;;;;;5.10;4.60;;;;;;;28.19;50.52;101306.53;4892695;29;20041;-79
2022/05/26 10:43:59;;;;;;;6.45;4.50;;;;;;;27.77;51.17;101292.38;4897850;29;20059;-79
2022/05/26 10:46:31;;;;;;;4.72;4.18;;;;;;;27.75;51.61;101297.56;4898461;29;20048;-79
2022/05/26 10:49:25;;;;;;;6.20;4.70;;;;;;;27.83;51.50;101304.91;4898328;29;20048;-79
2022/05/26 10:52:02;;;;;;;6.60;4.65;;;;;;;27.60;51.54;101305.81;4898199;29;20060;-78
2022/05/26 10:55:00;;;;;;;6.03;4.78;;;;;;;27.71;52.01;101302.34;4898285;29;20051;-78
2022/05/26 10:57:53;;;;;;;6.85;4.85;;;;;;;27.85;51.20;101299.69;4872615;29;20048;-79
2022/05/26 11:00:28;;;;;;;5.57;5.00;;;;;;;27.70;51.44;101283.84;4897728;29;20052;-78
2022/05/26 11:03:05;;;;;;;8.88;4.65;;;;;;;27.93;51.22;101299.78;4898043;29;20055;-79
2022/05/26 11:05:42;;;;;;;7.78;4.88;;;;;;;27.70;50.31;101290.28;4881516;29;20056;-78
2022/05/26 11:08:23;;;;;;;6.45;4.75;;;;;;;27.76;51.15;101293.56;4898212;29;20130;-78
2022/05/26 11:10:56;;;;;;;6.10;4.85;;;;;;;27.75;50.11;101295.56;4897848;29;20052;-78
2022/05/26 11:13:37;;;;;;;6.07;4.72;;;;;;;27.75;50.62;101292.75;4897897;29;20060;-78
2022/05/26 11:19:34;;;;;;;4.70;4.22;;;;;;;27.82;50.17;101289.22;4897815;29;20044;-78
2022/05/26 11:22:04;;;;;;;7.07;4.60;;;;;;;27.88;49.94;101293.31;4894674;29;20392;-78
2022/05/26 11:24:33;;;;;;;8.02;5.30;;;;;;;28.01;50.80;101282.59;4897551;29;20045;-78
2022/05/26 11:27:16;;;;;;;9.15;4.78;;;;;;;28.12;48.87;101285.56;4897773;29;20055;-78
2022/05/26 11:29:50;;;;;;;5.38;4.35;;;;;;;28.22;48.72;101292.53;4897624;29;20049;-78
2022/05/26 11:38:31;;;;;;;5.93;4.57;;;;;;;28.33;49.08;101286.22;4897423;29;20059;-79
2022/05/26 11:41:26;;;;;;;9.88;5.10;;;;;;;28.13;48.68;101289.16;4896810;29;20412;-79
2022/05/26 11:44:12;;;;;;;8.35;5.20;;;;;;;28.15;49.26;101270.72;4894865;29;20052;-78
2022/05/26 11:46:48;;;;;;;6.13;4.53;;;;;;;28.28;49.10;101270.47;4895703;29;20040;-78
2022/05/26 11:49:47;;;;;;;6.35;4.82;;;;;;;28.30;49.59;101277.31;4896161;29;20408;-79
2022/05/26 11:52:26;;;;;;;6.57;4.50;;;;;;;28.23;49.35;101276.44;4894854;29;20484;-79
2022/05/26 11:54:55;;;;;;;5.45;4.78;;;;;;;28.34;49.43;101273.75;4896479;29;20059;-79
2022/05/26 11:57:38;;;;;;;9.23;4.55;;;;;;;28.33;48.78;101278.56;4896167;29;20504;-79
2022/05/26 12:00:16;;;;;;;9.07;5.18;;;;;;;28.28;47.99;101285.34;4894894;29;20045;-78
2022/05/26 12:03:34;;;;;;;6.80;4.60;;;;;;;28.22;47.69;101269.16;4891356;29;20056;-79
2022/05/26 12:06:34;;;;;;;5.03;4.10;;;;;;;28.13;47.87;101273.09;4893311;29;20045;-79
2022/05/26 12:09:07;;;;;;;7.55;4.32;;;;;;;28.20;47.71;101263.91;4855731;29;20056;-80
2022/05/26 12:12:01;;;;;;;9.07;4.85;;;;;;;28.18;48.38;101271.94;4894112;29;20045;-79
2022/05/26 12:14:47;;;;;;;6.43;4.45;;;;;;;28.03;48.25;101270.97;4892517;29;20048;-79
2022/05/26 12:17:38;;;;;;;9.77;5.20;;;;;;;28.07;48.26;101259.75;4892870;29;20606;-79
2022/05/26 12:20:10;;;;;;;5.95;5.05;;;;;;;27.92;48.50;101255.97;4891890;29;20056;-79
2022/05/26 12:22:51;;;;;;;8.68;5.03;;;;;;;27.96;48.49;101260.44;4894219;29;20532;-79
2022/05/26 12:25:22;;;;;;;6.82;4.80;;;;;;;27.87;49.38;101252.31;4892043;29;20530;-79
2022/05/26 12:27:56;;;;;;;9.15;5.32;;;;;;;27.84;49.24;101255.09;4891180;29;20089;-79
2022/05/26 12:30:44;;;;;;;4.65;4.22;;;;;;;27.66;50.57;101241.63;4893709;29;20052;-79
2022/05/26 12:33:34;;;;;;;6.47;4.65;;;;;;;27.84;49.42;101243.84;4894035;29;20743;-80
2022/05/26 12:36:38;;;;;;;7.70;4.47;;;;;;;28.11;48.79;101244.53;4892800;29;20508;-79
2022/05/26 12:39:43;;;;;;;6.70;4.22;;;;;;;28.24;48.77;101253.53;4891179;29;20049;-79
2022/05/26 12:42:36;;;;;;;7.22;4.63;;;;;;;28.01;48.03;101243.22;4893680;29;20044;-80